Time,TemperatureF,DewpointF,PressureIn,WindDirection,WindDirectionDegrees,WindSpeedMPH,WindSpeedGustMPH,Humidity,HourlyPrecipIn,Conditions,Clouds,dailyrainin,SolarRadiationWatts/m^2,SoftwareType,DateUTC
2013-05-13 00:03:00,63.9,39.7,29.85,SW,232,9.0,10.0,41,0.00,,,0.00,0.0,meteohub,2013-05-13 05:03:00,
2013-05-13 00:08:00,62.1,40.5,29.85,SW,234,10.0,11.0,45,0.00,,,0.00,0.0,meteohub,2013-05-13 05:08:00,
2013-05-13 00:13:00,61.0,40.6,29.84,SW,236,10.0,11.0,47,0.00,,,0.00,0.0,meteohub,2013-05-13 05:13:00,
2013-05-13 00:19:00,60.6,41.4,29.84,SW,234,11.0,12.0,49,0.00,,,0.00,0.0,meteohub,2013-05-13 05:19:00,
2013-05-13 00:24:00,59.7,40.5,29.84,WSW,238,9.0,12.0,49,0.00,,,0.00,0.0,meteohub,2013-05-13 05:24:00,
2013-05-13 00:29:00,59.0,40.5,29.84,SW,236,11.0,12.0,50,0.00,,,0.00,0.0,meteohub,2013-05-13 05:29:00,
2013-05-13 00:34:00,59.4,40.6,29.84,SW,234,13.0,13.0,50,0.00,,,0.00,0.0,meteohub,2013-05-13 05:34:00,
2013-05-13 00:39:00,60.8,40.5,29.84,WSW,238,11.0,13.0,47,0.00,,,0.00,0.0,meteohub,2013-05-13 05:39:00,
2013-05-13 00:44:00,61.0,40.6,29.84,WSW,240,11.0,14.0,47,0.00,,,0.00,0.0,meteohub,2013-05-13 05:44:00,
2013-05-13 00:49:00,60.6,40.8,29.84,WSW,238,10.0,14.0,48,0.00,,,0.00,0.0,meteohub,2013-05-13 05:49:00,
2013-05-13 00:54:00,60.3,40.5,29.84,SW,236,12.0,14.0,48,0.00,,,0.00,0.0,meteohub,2013-05-13 05:54:00,
2013-05-13 00:59:00,60.1,40.3,29.84,WSW,240,10.0,12.0,48,0.00,,,0.00,0.0,meteohub,2013-05-13 05:59:00,
2013-05-13 01:04:00,59.5,40.3,29.84,WSW,250,12.0,12.0,49,0.00,,,0.00,0.0,meteohub,2013-05-13 06:04:00,
2013-05-13 01:09:00,59.4,39.7,29.84,WSW,240,12.0,12.0,48,0.00,,,0.00,0.0,meteohub,2013-05-13 06:09:00,
2013-05-13 01:14:00,60.1,40.3,29.84,SW,234,11.0,13.0,48,0.00,,,0.00,0.0,meteohub,2013-05-13 06:14:00,
2013-05-13 01:19:00,60.6,39.7,29.84,SW,232,11.0,13.0,46,0.00,,,0.00,0.0,meteohub,2013-05-13 06:19:00,
2013-05-13 01:24:00,60.4,39.6,29.84,SW,234,10.0,13.0,46,0.00,,,0.00,0.0,meteohub,2013-05-13 06:24:00,
2013-05-13 01:29:00,60.6,39.7,29.84,WSW,242,11.0,13.0,46,0.00,,,0.00,0.0,meteohub,2013-05-13 06:29:00,
2013-05-13 01:34:00,60.4,39.6,29.84,WSW,240,10.0,12.0,46,0.00,,,0.00,0.0,meteohub,2013-05-13 06:34:00,
2013-05-13 01:39:00,59.7,39.9,29.84,WSW,245,9.0,12.0,48,0.00,,,0.00,0.0,meteohub,2013-05-13 06:39:00,
2013-05-13 01:44:00,58.5,39.9,29.83,WSW,250,8.0,12.0,50,0.00,,,0.00,0.0,meteohub,2013-05-13 06:44:00,
2013-05-13 01:49:00,57.6,39.0,29.83,WSW,241,9.0,12.0,50,0.00,,,0.00,0.0,meteohub,2013-05-13 06:49:00,
2013-05-13 01:55:00,56.8,39.9,29.84,SW,229,8.0,11.0,53,0.00,,,0.00,0.0,meteohub,2013-05-13 06:55:00,
2013-05-13 02:00:00,55.9,39.9,29.84,SSW,200,10.0,10.0,55,0.00,,,0.00,0.0,meteohub,2013-05-13 07:00:00,
2013-05-13 02:05:00,54.7,40.3,29.84,SW,214,12.0,12.0,58,0.00,,,0.00,0.0,meteohub,2013-05-13 07:05:00,
2013-05-13 02:10:00,54.1,40.1,29.83,SW,223,11.0,11.0,59,0.00,,,0.00,0.0,meteohub,2013-05-13 07:10:00,
2013-05-13 02:15:00,53.8,40.6,29.83,SW,223,12.0,13.0,61,0.00,,,0.00,0.0,meteohub,2013-05-13 07:15:00,
2013-05-13 02:20:00,53.4,40.3,29.83,SSW,210,11.0,13.0,61,0.00,,,0.00,0.0,meteohub,2013-05-13 07:20:00,
2013-05-13 02:25:00,53.2,40.6,29.83,SW,225,11.0,13.0,62,0.00,,,0.00,0.0,meteohub,2013-05-13 07:25:00,
2013-05-13 02:30:00,53.4,40.6,29.83,SW,230,11.0,13.0,62,0.00,,,0.00,0.0,meteohub,2013-05-13 07:30:00,
2013-05-13 02:35:00,53.2,41.0,29.83,SW,227,9.0,13.0,63,0.00,,,0.00,0.0,meteohub,2013-05-13 07:35:00,
2013-05-13 02:40:00,53.1,41.2,29.83,SW,227,8.0,13.0,64,0.00,,,0.00,0.0,meteohub,2013-05-13 07:40:00,
2013-05-13 02:45:00,52.7,41.2,29.83,SW,225,10.0,12.0,65,0.00,,,0.00,0.0,meteohub,2013-05-13 07:45:00,
2013-05-13 02:50:00,52.7,41.2,29.82,SW,214,8.0,11.0,65,0.00,,,0.00,0.0,meteohub,2013-05-13 07:50:00,
2013-05-13 02:55:00,52.5,41.2,29.82,SW,233,9.0,11.0,65,0.00,,,0.00,0.0,meteohub,2013-05-13 07:55:00,
2013-05-13 03:00:00,52.7,41.2,29.83,SSW,211,7.0,11.0,65,0.00,,,0.00,0.0,meteohub,2013-05-13 08:00:00,
2013-05-13 03:05:00,52.3,41.0,29.83,SW,224,9.0,12.0,65,0.00,,,0.00,0.0,meteohub,2013-05-13 08:05:00,
2013-05-13 03:10:00,52.2,41.2,29.82,SW,216,10.0,12.0,66,0.00,,,0.00,0.0,meteohub,2013-05-13 08:10:00,
2013-05-13 03:16:00,51.8,40.8,29.82,SW,232,11.0,12.0,66,0.00,,,0.00,0.0,meteohub,2013-05-13 08:16:00,
2013-05-13 03:21:00,52.0,41.4,29.81,SW,221,10.0,11.0,67,0.00,,,0.00,0.0,meteohub,2013-05-13 08:21:00,
2013-05-13 03:26:00,52.0,41.0,29.81,SW,227,8.0,11.0,66,0.00,,,0.00,0.0,meteohub,2013-05-13 08:26:00,
2013-05-13 03:31:00,52.3,41.0,29.81,SSW,211,11.0,12.0,65,0.00,,,0.00,0.0,meteohub,2013-05-13 08:31:00,
2013-05-13 03:36:00,52.3,41.0,29.81,SW,219,12.0,13.0,65,0.00,,,0.00,0.0,meteohub,2013-05-13 08:36:00,
2013-05-13 03:41:00,52.3,41.0,29.81,SW,222,11.0,13.0,65,0.00,,,0.00,0.0,meteohub,2013-05-13 08:41:00,
2013-05-13 03:46:00,52.3,41.0,29.81,SW,220,12.0,13.0,65,0.00,,,0.00,0.0,meteohub,2013-05-13 08:46:00,
2013-05-13 03:51:00,52.2,40.8,29.81,SW,223,11.0,13.0,65,0.00,,,0.00,0.0,meteohub,2013-05-13 08:51:00,
2013-05-13 03:56:00,52.2,40.8,29.81,SW,223,13.0,14.0,65,0.00,,,0.00,0.0,meteohub,2013-05-13 08:56:00,
2013-05-13 04:01:00,52.2,40.8,29.81,SW,217,12.0,14.0,65,0.00,,,0.00,0.0,meteohub,2013-05-13 09:01:00,
2013-05-13 04:06:00,52.0,40.6,29.81,SW,215,12.0,14.0,65,0.00,,,0.00,0.0,meteohub,2013-05-13 09:06:00,
2013-05-13 04:11:00,51.6,40.3,29.81,SW,223,12.0,14.0,65,0.00,,,0.00,0.0,meteohub,2013-05-13 09:11:00,
2013-05-13 04:16:00,51.4,40.1,29.81,SW,225,13.0,15.0,65,0.00,,,0.00,0.0,meteohub,2013-05-13 09:16:00,
2013-05-13 04:21:00,51.6,40.6,29.81,SW,227,14.0,15.0,66,0.00,,,0.00,0.0,meteohub,2013-05-13 09:21:00,
2013-05-13 04:26:00,52.0,40.6,29.81,SW,234,13.0,15.0,65,0.00,,,0.00,0.0,meteohub,2013-05-13 09:26:00,
2013-05-13 04:32:00,52.2,40.8,29.81,SW,229,13.0,15.0,65,0.00,,,0.00,0.0,meteohub,2013-05-13 09:32:00,
2013-05-13 04:37:00,52.2,40.8,29.81,SW,225,11.0,15.0,65,0.00,,,0.00,0.0,meteohub,2013-05-13 09:37:00,
2013-05-13 04:42:00,52.2,40.8,29.81,SW,228,12.0,15.0,65,0.00,,,0.00,0.0,meteohub,2013-05-13 09:42:00,
2013-05-13 04:47:00,52.3,41.0,29.81,WSW,239,14.0,15.0,65,0.00,,,0.00,0.0,meteohub,2013-05-13 09:47:00,
2013-05-13 04:52:00,53.1,40.8,29.81,SW,234,12.0,15.0,63,0.00,,,0.00,0.0,meteohub,2013-05-13 09:52:00,
2013-05-13 04:57:00,53.2,41.0,29.81,SW,226,10.0,15.0,63,0.00,,,0.00,0.0,meteohub,2013-05-13 09:57:00,
2013-05-13 05:02:00,53.8,40.6,29.81,WSW,246,12.0,18.0,61,0.00,,,0.00,0.0,meteohub,2013-05-13 10:02:00,
2013-05-13 05:07:00,54.1,41.0,29.81,WSW,241,15.0,18.0,61,0.00,,,0.00,0.0,meteohub,2013-05-13 10:07:00,
2013-05-13 05:12:00,54.3,40.8,29.81,WSW,245,13.0,18.0,60,0.00,,,0.00,0.0,meteohub,2013-05-13 10:12:00,
2013-05-13 05:17:00,54.7,40.6,29.81,WSW,250,12.0,18.0,59,0.00,,,0.00,0.0,meteohub,2013-05-13 10:17:00,
2013-05-13 05:22:00,54.9,40.3,29.81,SW,231,16.0,20.0,58,0.00,,,0.00,0.0,meteohub,2013-05-13 10:22:00,
2013-05-13 05:27:00,54.9,40.3,29.81,WSW,245,12.0,20.0,58,0.00,,,0.00,0.0,meteohub,2013-05-13 10:27:00,
2013-05-13 05:32:00,55.2,39.7,29.81,WSW,250,9.0,20.0,56,0.00,,,0.00,0.0,meteohub,2013-05-13 10:32:00,
2013-05-13 05:37:00,55.8,39.4,29.81,WSW,243,15.0,20.0,54,0.00,,,0.00,0.0,meteohub,2013-05-13 10:37:00,
2013-05-13 05:42:00,56.3,38.8,29.81,SW,231,15.0,20.0,52,0.00,,,0.00,0.0,meteohub,2013-05-13 10:42:00,
2013-05-13 05:47:00,56.1,38.7,29.81,WSW,247,16.0,22.0,52,0.00,,,0.00,0.0,meteohub,2013-05-13 10:47:00,
2013-05-13 05:53:00,56.1,38.7,29.82,WSW,246,21.0,22.0,52,0.00,,,0.00,0.0,meteohub,2013-05-13 10:53:00,
2013-05-13 05:58:00,56.1,39.2,29.82,WSW,242,14.0,22.0,53,0.00,,,0.00,0.0,meteohub,2013-05-13 10:58:00,
2013-05-13 06:03:00,55.9,39.0,29.82,WSW,258,12.0,22.0,53,0.00,,,0.00,0.0,meteohub,2013-05-13 11:03:00,
2013-05-13 06:08:00,55.6,39.2,29.82,SW,233,15.0,21.0,54,0.00,,,0.00,0.0,meteohub,2013-05-13 11:08:00,
2013-05-13 06:13:00,55.4,39.0,29.82,WSW,248,14.0,20.0,54,0.00,,,0.00,0.0,meteohub,2013-05-13 11:13:00,
2013-05-13 06:18:00,55.4,39.0,29.82,WSW,248,14.0,19.0,54,0.00,,,0.00,0.0,meteohub,2013-05-13 11:18:00,
2013-05-13 06:23:00,55.2,38.8,29.82,WSW,246,12.0,19.0,54,0.00,,,0.00,0.0,meteohub,2013-05-13 11:23:00,
2013-05-13 06:28:00,54.9,39.0,29.83,WSW,247,11.0,19.0,55,0.00,,,0.00,0.0,meteohub,2013-05-13 11:28:00,
2013-05-13 06:33:00,54.9,38.5,29.83,WSW,245,16.0,17.0,54,0.00,,,0.00,0.0,meteohub,2013-05-13 11:33:00,
2013-05-13 06:38:00,55.0,38.7,29.83,WSW,241,10.0,18.0,54,0.00,,,0.00,0.0,meteohub,2013-05-13 11:38:00,
2013-05-13 06:43:00,55.0,38.7,29.83,WSW,250,12.0,18.0,54,0.00,,,0.00,0.0,meteohub,2013-05-13 11:43:00,
2013-05-13 06:48:00,55.4,38.5,29.83,WSW,242,17.0,18.0,53,0.00,,,0.00,7.0,meteohub,2013-05-13 11:48:00,
2013-05-13 06:53:00,55.8,38.8,29.83,WSW,242,14.0,17.0,53,0.00,,,0.00,9.0,meteohub,2013-05-13 11:53:00,
2013-05-13 06:58:00,55.9,38.5,29.83,WSW,248,13.0,18.0,52,0.00,,,0.00,12.0,meteohub,2013-05-13 11:58:00,
2013-05-13 07:04:00,55.9,38.5,29.83,WSW,244,15.0,18.0,52,0.00,,,0.00,16.0,meteohub,2013-05-13 12:04:00,
2013-05-13 07:09:00,56.5,38.7,29.83,WSW,242,16.0,18.0,51,0.00,,,0.00,16.0,meteohub,2013-05-13 12:09:00,
2013-05-13 07:14:00,56.8,38.5,29.83,WSW,243,14.0,22.0,50,0.00,,,0.00,19.0,meteohub,2013-05-13 12:14:00,
2013-05-13 07:19:00,57.0,38.5,29.83,WSW,242,15.0,22.0,50,0.00,,,0.00,21.0,meteohub,2013-05-13 12:19:00,
2013-05-13 07:24:00,57.4,38.8,29.84,WSW,244,13.0,22.0,50,0.00,,,0.00,25.0,meteohub,2013-05-13 12:24:00,
2013-05-13 07:29:00,57.6,38.5,29.84,WSW,238,16.0,19.0,49,0.00,,,0.00,26.0,meteohub,2013-05-13 12:29:00,
2013-05-13 07:34:00,57.9,38.3,29.85,SW,236,15.0,22.0,48,0.00,,,0.00,54.0,meteohub,2013-05-13 12:34:00,
2013-05-13 07:39:00,58.5,38.3,29.85,SW,234,16.0,22.0,47,0.00,,,0.00,109.0,meteohub,2013-05-13 12:39:00,
2013-05-13 07:44:00,58.6,39.0,29.85,SW,229,14.0,22.0,48,0.00,,,0.00,134.0,meteohub,2013-05-13 12:44:00,
2013-05-13 07:49:00,58.8,39.2,29.85,SW,235,18.0,20.0,48,0.00,,,0.00,139.0,meteohub,2013-05-13 12:49:00,
2013-05-13 07:54:00,59.4,39.2,29.86,SW,228,14.0,21.0,47,0.00,,,0.00,130.0,meteohub,2013-05-13 12:54:00,
2013-05-13 07:59:00,59.7,39.4,29.86,SW,229,16.0,21.0,47,0.00,,,0.00,139.0,meteohub,2013-05-13 12:59:00,
2013-05-13 08:05:00,60.3,39.9,29.86,SW,231,15.0,21.0,47,0.00,,,0.00,179.0,meteohub,2013-05-13 13:05:00,
2013-05-13 08:10:00,60.8,39.4,29.86,SW,236,17.0,21.0,45,0.00,,,0.00,214.0,meteohub,2013-05-13 13:10:00,
2013-05-13 08:15:00,61.5,39.4,29.86,SW,233,13.0,20.0,44,0.00,,,0.00,246.0,meteohub,2013-05-13 13:15:00,
2013-05-13 08:20:00,62.1,39.4,29.86,SW,236,18.0,22.0,43,0.00,,,0.00,267.0,meteohub,2013-05-13 13:20:00,
2013-05-13 08:25:00,62.8,39.4,29.86,WSW,248,19.0,23.0,42,0.00,,,0.00,287.0,meteohub,2013-05-13 13:25:00,
2013-05-13 08:30:00,63.3,38.7,29.86,SW,232,14.0,23.0,40,0.00,,,0.00,292.0,meteohub,2013-05-13 13:30:00,
2013-05-13 08:35:00,64.0,39.9,29.86,SW,235,19.0,26.0,41,0.00,,,0.00,302.0,meteohub,2013-05-13 13:35:00,
2013-05-13 08:40:00,64.9,39.4,29.86,SW,236,14.0,26.0,39,0.00,,,0.00,316.0,meteohub,2013-05-13 13:40:00,
2013-05-13 08:45:00,65.7,39.4,29.86,WSW,241,18.0,22.0,38,0.00,,,0.00,283.0,meteohub,2013-05-13 13:45:00,
2013-05-13 08:50:00,66.6,39.6,29.86,WSW,251,16.0,25.0,37,0.00,,,0.00,294.0,meteohub,2013-05-13 13:50:00,
2013-05-13 08:55:00,67.1,39.2,29.86,SW,236,12.0,25.0,36,0.00,,,0.00,306.0,meteohub,2013-05-13 13:55:00,
2013-05-13 09:01:00,67.8,39.9,29.86,WSW,242,20.0,25.0,36,0.00,,,0.00,353.0,meteohub,2013-05-13 14:01:00,
2013-05-13 09:06:00,68.5,39.7,29.86,SW,234,21.0,23.0,35,0.00,,,0.00,417.0,meteohub,2013-05-13 14:06:00,
2013-05-13 09:11:00,69.3,38.8,29.86,SW,236,20.0,23.0,33,0.00,,,0.00,432.0,meteohub,2013-05-13 14:11:00,
2013-05-13 09:16:00,70.2,38.8,29.87,WSW,237,12.0,23.0,32,0.00,,,0.00,457.0,meteohub,2013-05-13 14:16:00,
2013-05-13 09:21:00,70.9,39.6,29.87,WSW,238,21.0,25.0,32,0.00,,,0.00,473.0,meteohub,2013-05-13 14:21:00,
2013-05-13 09:26:00,71.1,38.8,29.87,WSW,241,19.0,25.0,31,0.00,,,0.00,490.0,meteohub,2013-05-13 14:26:00,
2013-05-13 09:31:00,71.2,38.3,29.87,SW,232,23.0,25.0,30,0.00,,,0.00,508.0,meteohub,2013-05-13 14:31:00,
2013-05-13 09:36:00,71.8,38.7,29.87,WSW,244,19.0,29.0,30,0.00,,,0.00,526.0,meteohub,2013-05-13 14:36:00,
2013-05-13 09:41:00,72.3,38.3,29.87,WSW,238,19.0,29.0,29,0.00,,,0.00,541.0,meteohub,2013-05-13 14:41:00,
2013-05-13 09:46:00,72.9,39.6,29.87,SW,232,20.0,29.0,30,0.00,,,0.00,490.0,meteohub,2013-05-13 14:46:00,
2013-05-13 09:51:00,73.0,38.8,29.87,WSW,244,14.0,27.0,29,0.00,,,0.00,548.0,meteohub,2013-05-13 14:51:00,
2013-05-13 09:56:00,73.8,38.7,29.86,WSW,238,22.0,26.0,28,0.00,,,0.00,538.0,meteohub,2013-05-13 14:56:00,
2013-05-13 10:01:00,74.5,41.9,29.86,SW,235,15.0,26.0,31,0.00,,,0.00,606.0,meteohub,2013-05-13 15:01:00,
2013-05-13 10:06:00,75.4,40.1,29.86,SW,226,16.0,26.0,28,0.00,,,0.00,613.0,meteohub,2013-05-13 15:06:00,
2013-05-13 10:11:00,75.7,39.4,29.86,WSW,244,19.0,24.0,27,0.00,,,0.00,636.0,meteohub,2013-05-13 15:11:00,
2013-05-13 10:16:00,76.5,39.0,29.86,WSW,248,16.0,25.0,26,0.00,,,0.00,649.0,meteohub,2013-05-13 15:16:00,
2013-05-13 10:22:00,77.2,39.6,29.86,WSW,252,11.0,25.0,26,0.00,,,0.00,582.0,meteohub,2013-05-13 15:22:00,
2013-05-13 10:27:00,77.7,40.1,29.86,WSW,255,15.0,25.0,26,0.00,,,0.00,489.0,meteohub,2013-05-13 15:27:00,
2013-05-13 10:32:00,78.3,40.6,29.86,SW,232,17.0,23.0,26,0.00,,,0.00,494.0,meteohub,2013-05-13 15:32:00,
2013-05-13 10:37:00,78.4,39.7,29.86,WSW,252,15.0,20.0,25,0.00,,,0.00,663.0,meteohub,2013-05-13 15:37:00,
2013-05-13 10:42:00,79.2,39.2,29.85,WSW,255,11.0,20.0,24,0.00,,,0.00,705.0,meteohub,2013-05-13 15:42:00,
2013-05-13 10:47:00,79.7,41.7,29.86,WSW,244,10.0,20.0,26,0.00,,,0.00,664.0,meteohub,2013-05-13 15:47:00,
2013-05-13 10:52:00,80.1,41.0,29.85,SW,236,19.0,20.0,25,0.00,,,0.00,752.0,meteohub,2013-05-13 15:52:00,
2013-05-13 10:57:00,80.4,40.3,29.85,WSW,240,12.0,19.0,24,0.00,,,0.00,763.0,meteohub,2013-05-13 15:57:00,
2013-05-13 11:02:00,81.7,41.4,29.85,WSW,241,10.0,19.0,24,0.00,,,0.00,775.0,meteohub,2013-05-13 16:02:00,
2013-05-13 11:07:00,82.2,43.0,29.85,WSW,243,11.0,19.0,25,0.00,,,0.00,724.0,meteohub,2013-05-13 16:07:00,
2013-05-13 11:12:00,82.6,39.9,29.85,SW,236,11.0,18.0,22,0.00,,,0.00,800.0,meteohub,2013-05-13 16:12:00,
2013-05-13 11:17:00,82.8,41.2,29.85,SW,228,13.0,17.0,23,0.00,,,0.00,812.0,meteohub,2013-05-13 16:17:00,
2013-05-13 11:22:00,83.3,39.4,29.85,WSW,240,13.0,17.0,21,0.00,,,0.00,824.0,meteohub,2013-05-13 16:22:00,
2013-05-13 11:27:00,84.0,38.7,29.85,SW,232,12.0,17.0,20,0.00,,,0.00,835.0,meteohub,2013-05-13 16:27:00,
2013-05-13 11:32:00,84.4,39.0,29.85,WSW,244,15.0,17.0,20,0.00,,,0.00,847.0,meteohub,2013-05-13 16:32:00,
2013-05-13 11:37:00,84.6,36.3,29.85,WSW,238,13.0,16.0,18,0.00,,,0.00,858.0,meteohub,2013-05-13 16:37:00,
2013-05-13 11:42:00,84.9,35.2,29.84,SW,219,14.0,18.0,17,0.00,,,0.00,868.0,meteohub,2013-05-13 16:42:00,
2013-05-13 11:47:00,85.6,34.3,29.84,WSW,248,11.0,18.0,16,0.00,,,0.00,877.0,meteohub,2013-05-13 16:47:00,
2013-05-13 11:52:00,85.8,36.0,29.84,WSW,244,14.0,18.0,17,0.00,,,0.00,886.0,meteohub,2013-05-13 16:52:00,
2013-05-13 11:57:00,86.2,36.3,29.83,WSW,240,15.0,17.0,17,0.00,,,0.00,898.0,meteohub,2013-05-13 16:57:00,
2013-05-13 12:02:00,86.5,31.6,29.83,WSW,246,9.0,17.0,14,0.00,,,0.00,904.0,meteohub,2013-05-13 17:02:00,
2013-05-13 12:08:00,86.7,33.6,29.83,WSW,245,17.0,19.0,15,0.00,,,0.00,914.0,meteohub,2013-05-13 17:08:00,
2013-05-13 12:13:00,86.5,33.4,29.83,WSW,248,9.0,19.0,15,0.00,,,0.00,921.0,meteohub,2013-05-13 17:13:00,
2013-05-13 12:18:00,86.7,33.6,29.83,SW,236,16.0,19.0,15,0.00,,,0.00,930.0,meteohub,2013-05-13 17:18:00,
2013-05-13 12:23:00,86.7,33.6,29.83,SW,225,8.0,19.0,15,0.00,,,0.00,935.0,meteohub,2013-05-13 17:23:00,
2013-05-13 12:28:00,87.1,33.8,29.83,South,178,8.0,19.0,15,0.00,,,0.00,944.0,meteohub,2013-05-13 17:28:00,
2013-05-13 12:33:00,87.4,34.2,29.83,SSW,198,19.0,21.0,15,0.00,,,0.00,951.0,meteohub,2013-05-13 17:33:00,
2013-05-13 12:38:00,87.4,32.4,29.83,SSW,211,8.0,21.0,14,0.00,,,0.00,954.0,meteohub,2013-05-13 17:38:00,
2013-05-13 12:43:00,87.4,32.4,29.83,SW,218,11.0,21.0,14,0.00,,,0.00,962.0,meteohub,2013-05-13 17:43:00,
2013-05-13 12:48:00,87.4,34.2,29.83,SW,221,12.0,19.0,15,0.00,,,0.00,963.0,meteohub,2013-05-13 17:48:00,
2013-05-13 12:53:00,87.1,33.8,29.83,SW,236,10.0,20.0,15,0.00,,,0.00,969.0,meteohub,2013-05-13 17:53:00,
2013-05-13 12:58:00,87.3,34.0,29.82,SW,227,13.0,20.0,15,0.00,,,0.00,967.0,meteohub,2013-05-13 17:58:00,
2013-05-13 13:03:00,87.6,32.5,29.82,South,188,10.0,20.0,14,0.00,,,0.00,976.0,meteohub,2013-05-13 18:03:00,
2013-05-13 13:08:00,88.0,32.9,29.81,SSE,150,9.0,16.0,14,0.00,,,0.00,981.0,meteohub,2013-05-13 18:08:00,
2013-05-13 13:13:00,88.3,31.3,29.82,SSW,202,15.0,16.0,13,0.00,,,0.00,983.0,meteohub,2013-05-13 18:13:00,
2013-05-13 13:18:00,87.8,32.7,29.82,South,178,9.0,21.0,14,0.00,,,0.00,984.0,meteohub,2013-05-13 18:18:00,
2013-05-13 13:23:00,87.8,32.7,29.81,South,178,2.0,23.0,14,0.00,,,0.00,986.0,meteohub,2013-05-13 18:23:00,
2013-05-13 13:28:00,87.6,32.5,29.81,SSW,193,16.0,23.0,14,0.00,,,0.00,991.0,meteohub,2013-05-13 18:28:00,
2013-05-13 13:34:00,88.0,32.9,29.81,South,186,16.0,23.0,14,0.00,,,0.00,993.0,meteohub,2013-05-13 18:34:00,
2013-05-13 13:39:00,88.2,31.1,29.81,SSW,205,8.0,19.0,13,0.00,,,0.00,993.0,meteohub,2013-05-13 18:39:00,
2013-05-13 13:44:00,88.2,32.9,29.81,SSW,193,15.0,21.0,14,0.00,,,0.00,995.0,meteohub,2013-05-13 18:44:00,
2013-05-13 13:49:00,88.0,32.9,29.81,South,173,7.0,21.0,14,0.00,,,0.00,993.0,meteohub,2013-05-13 18:49:00,
2013-05-13 13:54:00,88.2,31.1,29.80,WSW,250,8.0,21.0,13,0.00,,,0.00,995.0,meteohub,2013-05-13 18:54:00,
2013-05-13 13:59:00,88.5,33.3,29.80,WSW,238,11.0,19.0,14,0.00,,,0.00,993.0,meteohub,2013-05-13 18:59:00,
2013-05-13 14:04:00,88.9,31.6,29.80,SSW,213,9.0,18.0,13,0.00,,,0.00,986.0,meteohub,2013-05-13 19:04:00,
2013-05-13 14:09:00,88.9,31.6,29.80,SW,236,11.0,19.0,13,0.00,,,0.00,983.0,meteohub,2013-05-13 19:09:00,
2013-05-13 14:14:00,88.5,33.3,29.80,WSW,252,10.0,19.0,14,0.00,,,0.00,986.0,meteohub,2013-05-13 19:14:00,
2013-05-13 14:19:00,88.0,30.9,29.79,SW,217,2.0,19.0,13,0.00,,,0.00,981.0,meteohub,2013-05-13 19:19:00,
2013-05-13 14:24:00,88.9,35.2,29.79,SSW,206,12.0,17.0,15,0.00,,,0.00,983.0,meteohub,2013-05-13 19:24:00,
2013-05-13 14:29:00,89.1,31.8,29.79,SSW,198,21.0,21.0,13,0.00,,,0.00,974.0,meteohub,2013-05-13 19:29:00,
2013-05-13 14:34:00,89.4,32.2,29.79,SW,221,18.0,19.0,13,0.00,,,0.00,965.0,meteohub,2013-05-13 19:34:00,
2013-05-13 14:39:00,89.2,33.8,29.78,SW,233,12.0,21.0,14,0.00,,,0.00,972.0,meteohub,2013-05-13 19:39:00,
2013-05-13 14:44:00,89.4,32.2,29.78,SSW,198,5.0,21.0,13,0.00,,,0.00,963.0,meteohub,2013-05-13 19:44:00,
2013-05-13 14:49:00,89.1,31.8,29.78,West,262,3.0,18.0,13,0.00,,,0.00,935.0,meteohub,2013-05-13 19:49:00,
2013-05-13 14:55:00,89.2,32.0,29.78,SSE,150,9.0,18.0,13,0.00,,,0.00,902.0,meteohub,2013-05-13 19:55:00,
2013-05-13 15:00:00,89.6,32.2,29.78,South,180,6.0,17.0,13,0.00,,,0.00,949.0,meteohub,2013-05-13 20:00:00,
2013-05-13 15:05:00,90.0,32.5,29.78,South,169,8.0,17.0,13,0.00,,,0.00,921.0,meteohub,2013-05-13 20:05:00,
2013-05-13 15:10:00,90.1,30.7,29.78,SSW,206,7.0,17.0,12,0.00,,,0.00,912.0,meteohub,2013-05-13 20:10:00,
2013-05-13 15:15:00,90.0,32.5,29.78,South,188,6.0,17.0,13,0.00,,,0.00,909.0,meteohub,2013-05-13 20:15:00,
2013-05-13 15:20:00,90.3,32.9,29.78,SSE,162,3.0,14.0,13,0.00,,,0.00,926.0,meteohub,2013-05-13 20:20:00,
2013-05-13 15:25:00,90.1,30.7,29.77,SSW,205,11.0,17.0,12,0.00,,,0.00,919.0,meteohub,2013-05-13 20:25:00,
2013-05-13 15:30:00,89.8,30.4,29.78,SSW,194,5.0,20.0,12,0.00,,,0.00,916.0,meteohub,2013-05-13 20:30:00,
2013-05-13 15:35:00,90.0,32.5,29.77,SSW,201,17.0,20.0,13,0.00,,,0.00,889.0,meteohub,2013-05-13 20:35:00,
2013-05-13 15:40:00,89.4,32.2,29.78,SW,228,5.0,24.0,13,0.00,,,0.00,886.0,meteohub,2013-05-13 20:40:00,
2013-05-13 15:46:00,89.8,30.4,29.77,SSE,156,7.0,24.0,12,0.00,,,0.00,868.0,meteohub,2013-05-13 20:46:00,
2013-05-13 15:51:00,89.4,32.2,29.77,SSE,161,11.0,24.0,13,0.00,,,0.00,886.0,meteohub,2013-05-13 20:51:00,
2013-05-13 15:56:00,89.1,31.8,29.76,South,186,13.0,14.0,13,0.00,,,0.00,821.0,meteohub,2013-05-13 20:56:00,
2013-05-13 16:01:00,89.4,32.2,29.76,SSE,155,8.0,15.0,13,0.00,,,0.00,831.0,meteohub,2013-05-13 21:01:00,
2013-05-13 16:06:00,89.8,32.4,29.76,SW,236,13.0,15.0,13,0.00,,,0.00,793.0,meteohub,2013-05-13 21:06:00,
2013-05-13 16:11:00,90.1,32.7,29.76,SW,234,14.0,15.0,13,0.00,,,0.00,770.0,meteohub,2013-05-13 21:11:00,
2013-05-13 16:16:00,90.1,30.7,29.75,SW,215,14.0,22.0,12,0.00,,,0.00,819.0,meteohub,2013-05-13 21:16:00,
2013-05-13 16:21:00,89.8,32.4,29.75,SW,217,13.0,22.0,13,0.00,,,0.00,788.0,meteohub,2013-05-13 21:21:00,
2013-05-13 16:26:00,90.3,32.9,29.75,SSW,196,12.0,22.0,13,0.00,,,0.00,761.0,meteohub,2013-05-13 21:26:00,
2013-05-13 16:31:00,90.1,30.7,29.75,SSE,154,7.0,22.0,12,0.00,,,0.00,772.0,meteohub,2013-05-13 21:31:00,
2013-05-13 16:36:00,90.0,30.6,29.75,SSE,166,4.0,22.0,12,0.00,,,0.00,761.0,meteohub,2013-05-13 21:36:00,
2013-05-13 16:41:00,90.0,30.6,29.75,SW,221,8.0,22.0,12,0.00,,,0.00,617.0,meteohub,2013-05-13 21:41:00,
2013-05-13 16:46:00,90.0,30.6,29.75,South,187,16.0,18.0,12,0.00,,,0.00,617.0,meteohub,2013-05-13 21:46:00,
2013-05-13 16:51:00,90.0,30.6,29.75,South,180,6.0,21.0,12,0.00,,,0.00,679.0,meteohub,2013-05-13 21:51:00,
2013-05-13 16:56:00,90.1,30.7,29.74,SSW,197,9.0,21.0,12,0.00,,,0.00,701.0,meteohub,2013-05-13 21:56:00,
2013-05-13 17:02:00,90.3,30.7,29.74,SW,229,3.0,21.0,12,0.00,,,0.00,698.0,meteohub,2013-05-13 22:02:00,
2013-05-13 17:07:00,90.3,30.7,29.74,South,189,16.0,18.0,12,0.00,,,0.00,652.0,meteohub,2013-05-13 22:07:00,
2013-05-13 17:12:00,90.3,30.7,29.74,SSW,205,9.0,19.0,12,0.00,,,0.00,617.0,meteohub,2013-05-13 22:12:00,
2013-05-13 17:17:00,90.3,30.7,29.73,South,178,8.0,21.0,12,0.00,,,0.00,615.0,meteohub,2013-05-13 22:17:00,
2013-05-13 17:22:00,90.3,30.7,29.73,SSW,196,11.0,21.0,12,0.00,,,0.00,589.0,meteohub,2013-05-13 22:22:00,
2013-05-13 17:27:00,90.3,30.7,29.73,SSW,197,15.0,19.0,12,0.00,,,0.00,608.0,meteohub,2013-05-13 22:27:00,
2013-05-13 17:32:00,90.7,31.1,29.73,South,184,10.0,23.0,12,0.00,,,0.00,571.0,meteohub,2013-05-13 22:32:00,
2013-05-13 17:37:00,90.1,30.7,29.73,South,175,3.0,23.0,12,0.00,,,0.00,580.0,meteohub,2013-05-13 22:37:00,
2013-05-13 17:42:00,90.1,30.7,29.72,South,169,6.0,23.0,12,0.00,,,0.00,555.0,meteohub,2013-05-13 22:42:00,
2013-05-13 17:47:00,90.0,30.6,29.72,South,171,4.0,17.0,12,0.00,,,0.00,536.0,meteohub,2013-05-13 22:47:00,
2013-05-13 17:52:00,90.0,30.6,29.72,South,182,11.0,15.0,12,0.00,,,0.00,538.0,meteohub,2013-05-13 22:52:00,
2013-05-13 17:57:00,90.1,30.7,29.72,South,184,13.0,19.0,12,0.00,,,0.00,519.0,meteohub,2013-05-13 22:57:00,
2013-05-13 18:02:00,90.1,28.6,29.72,SSW,196,9.0,19.0,11,0.00,,,0.00,519.0,meteohub,2013-05-13 23:02:00,
2013-05-13 18:07:00,90.3,30.7,29.72,South,188,13.0,19.0,12,0.00,,,0.00,494.0,meteohub,2013-05-13 23:07:00,
2013-05-13 18:12:00,90.3,30.7,29.72,SW,217,15.0,18.0,12,0.00,,,0.00,473.0,meteohub,2013-05-13 23:12:00,
2013-05-13 18:17:00,90.3,30.7,29.71,SSW,202,17.0,18.0,12,0.00,,,0.00,466.0,meteohub,2013-05-13 23:17:00,
2013-05-13 18:22:00,90.0,30.6,29.71,SSW,192,10.0,22.0,12,0.00,,,0.00,452.0,meteohub,2013-05-13 23:22:00,
2013-05-13 18:28:00,90.0,28.4,29.71,SSW,199,9.0,22.0,11,0.00,,,0.00,441.0,meteohub,2013-05-13 23:28:00,
2013-05-13 18:33:00,90.0,30.6,29.71,SSW,198,14.0,22.0,12,0.00,,,0.00,418.0,meteohub,2013-05-13 23:33:00,
2013-05-13 18:38:00,90.0,30.6,29.71,SSW,195,10.0,18.0,12,0.00,,,0.00,301.0,meteohub,2013-05-13 23:38:00,
2013-05-13 18:43:00,89.6,30.2,29.70,SSW,203,17.0,18.0,12,0.00,,,0.00,329.0,meteohub,2013-05-13 23:43:00,
2013-05-13 18:48:00,89.6,28.2,29.70,South,190,11.0,19.0,11,0.00,,,0.00,350.0,meteohub,2013-05-13 23:48:00,
2013-05-13 18:53:00,89.6,30.2,29.70,South,187,9.0,19.0,12,0.00,,,0.00,336.0,meteohub,2013-05-13 23:53:00,
2013-05-13 18:58:00,89.4,30.2,29.70,SW,220,9.0,19.0,12,0.00,,,0.00,315.0,meteohub,2013-05-13 23:58:00,
2013-05-13 19:03:00,89.4,30.2,29.70,SSW,209,11.0,19.0,12,0.00,,,0.00,309.0,meteohub,2013-05-14 00:03:00,
2013-05-13 19:08:00,89.4,30.2,29.70,SSW,213,12.0,17.0,12,0.00,,,0.00,292.0,meteohub,2013-05-14 00:08:00,
2013-05-13 19:13:00,89.4,30.2,29.70,SSW,200,12.0,17.0,12,0.00,,,0.00,269.0,meteohub,2013-05-14 00:13:00,
2013-05-13 19:18:00,89.2,30.0,29.70,South,190,12.0,16.0,12,0.00,,,0.00,197.0,meteohub,2013-05-14 00:18:00,
2013-05-13 19:23:00,88.9,29.7,29.69,SW,215,8.0,16.0,12,0.00,,,0.00,214.0,meteohub,2013-05-14 00:23:00,
2013-05-13 19:28:00,88.7,31.5,29.69,SSW,198,11.0,15.0,13,0.00,,,0.00,202.0,meteohub,2013-05-14 00:28:00,
2013-05-13 19:34:00,88.5,31.5,29.69,SSW,194,11.0,15.0,13,0.00,,,0.00,178.0,meteohub,2013-05-14 00:34:00,
2013-05-13 19:39:00,88.3,31.3,29.69,SSW,193,10.0,14.0,13,0.00,,,0.00,156.0,meteohub,2013-05-14 00:39:00,
2013-05-13 19:44:00,88.2,32.9,29.69,SSW,205,7.0,14.0,14,0.00,,,0.00,142.0,meteohub,2013-05-14 00:44:00,
2013-05-13 19:49:00,87.6,32.5,29.69,SSW,205,7.0,12.0,14,0.00,,,0.00,121.0,meteohub,2013-05-14 00:49:00,
2013-05-13 19:54:00,87.3,34.0,29.69,SSW,205,6.0,12.0,15,0.00,,,0.00,95.0,meteohub,2013-05-14 00:54:00,
2013-05-13 19:59:00,86.5,36.5,29.69,SSW,205,7.0,10.0,17,0.00,,,0.00,69.0,meteohub,2013-05-14 00:59:00,
2013-05-13 20:04:00,85.6,37.2,29.69,SSW,200,7.0,10.0,18,0.00,,,0.00,49.0,meteohub,2013-05-14 01:04:00,
2013-05-13 20:09:00,84.7,36.5,29.69,SSW,196,7.0,8.0,18,0.00,,,0.00,33.0,meteohub,2013-05-14 01:09:00,
2013-05-13 20:14:00,83.7,37.0,29.69,SSW,193,6.0,8.0,19,0.00,,,0.00,28.0,meteohub,2013-05-14 01:14:00,
2013-05-13 20:19:00,82.8,36.3,29.69,SSW,192,5.0,8.0,19,0.00,,,0.00,26.0,meteohub,2013-05-14 01:19:00,
2013-05-13 20:24:00,82.0,37.0,29.69,SSW,194,5.0,8.0,20,0.00,,,0.00,19.0,meteohub,2013-05-14 01:24:00,
2013-05-13 20:29:00,81.0,36.1,29.69,South,191,7.0,8.0,20,0.00,,,0.00,12.0,meteohub,2013-05-14 01:29:00,
2013-05-13 20:34:00,80.2,36.7,29.69,SSW,194,8.0,8.0,21,0.00,,,0.00,7.0,meteohub,2013-05-14 01:34:00,
2013-05-13 20:39:00,80.1,36.7,29.69,SSW,198,8.0,8.0,21,0.00,,,0.00,0.0,meteohub,2013-05-14 01:39:00,
2013-05-13 20:45:00,79.2,37.0,29.69,SSW,199,7.0,9.0,22,0.00,,,0.00,0.0,meteohub,2013-05-14 01:45:00,
2013-05-13 20:50:00,78.1,37.2,29.69,SSW,195,8.0,9.0,23,0.00,,,0.00,0.0,meteohub,2013-05-14 01:50:00,
2013-05-13 20:55:00,77.5,36.9,29.69,South,190,10.0,10.0,23,0.00,,,0.00,0.0,meteohub,2013-05-14 01:55:00,
2013-05-13 21:00:00,77.7,35.8,29.69,South,190,9.0,10.0,22,0.00,,,0.00,0.0,meteohub,2013-05-14 02:00:00,
2013-05-13 21:05:00,77.4,36.7,29.69,South,182,6.0,10.0,23,0.00,,,0.00,0.0,meteohub,2013-05-14 02:05:00,
2013-05-13 21:10:00,76.8,36.1,29.69,South,190,8.0,10.0,23,0.00,,,0.00,0.0,meteohub,2013-05-14 02:10:00,
2013-05-13 21:15:00,76.5,36.0,29.69,South,187,7.0,10.0,23,0.00,,,0.00,0.0,meteohub,2013-05-14 02:15:00,
2013-05-13 21:20:00,75.9,36.5,29.69,SSW,193,7.0,10.0,24,0.00,,,0.00,0.0,meteohub,2013-05-14 02:20:00,
2013-05-13 21:25:00,75.7,36.3,29.69,South,188,8.0,11.0,24,0.00,,,0.00,0.0,meteohub,2013-05-14 02:25:00,
2013-05-13 21:30:00,75.7,36.3,29.69,South,183,8.0,10.0,24,0.00,,,0.00,0.0,meteohub,2013-05-14 02:30:00,
2013-05-13 21:35:00,75.0,35.8,29.69,South,188,10.0,10.0,24,0.00,,,0.00,0.0,meteohub,2013-05-14 02:35:00,
2013-05-13 21:40:00,74.1,36.0,29.70,South,182,6.0,10.0,25,0.00,,,0.00,0.0,meteohub,2013-05-14 02:40:00,
2013-05-13 21:45:00,72.7,37.8,29.70,South,184,9.0,10.0,28,0.00,,,0.00,0.0,meteohub,2013-05-14 02:45:00,
2013-05-13 21:50:00,72.0,37.9,29.70,South,186,11.0,11.0,29,0.00,,,0.00,0.0,meteohub,2013-05-14 02:50:00,
2013-05-13 21:55:00,72.3,37.4,29.70,South,190,12.0,12.0,28,0.00,,,0.00,0.0,meteohub,2013-05-14 02:55:00,
2013-05-13 22:00:00,73.6,36.5,29.70,SSW,198,11.0,16.0,26,0.00,,,0.00,0.0,meteohub,2013-05-14 03:00:00,
2013-05-13 22:06:00,73.9,36.9,29.70,SSW,202,11.0,17.0,26,0.00,,,0.00,0.0,meteohub,2013-05-14 03:06:00,
2013-05-13 22:11:00,73.0,37.0,29.71,SSW,206,12.0,17.0,27,0.00,,,0.00,0.0,meteohub,2013-05-14 03:11:00,
2013-05-13 22:16:00,72.5,37.6,29.71,SSW,204,14.0,17.0,28,0.00,,,0.00,0.0,meteohub,2013-05-14 03:16:00,
2013-05-13 22:21:00,72.3,36.5,29.71,SSW,202,9.0,14.0,27,0.00,,,0.00,0.0,meteohub,2013-05-14 03:21:00,
2013-05-13 22:26:00,72.1,36.3,29.71,SSW,207,13.0,16.0,27,0.00,,,0.00,0.0,meteohub,2013-05-14 03:26:00,
2013-05-13 22:31:00,72.1,36.3,29.71,SSW,203,11.0,16.0,27,0.00,,,0.00,0.0,meteohub,2013-05-14 03:31:00,
2013-05-13 22:36:00,72.0,36.1,29.71,SSW,196,13.0,16.0,27,0.00,,,0.00,0.0,meteohub,2013-05-14 03:36:00,
2013-05-13 22:41:00,71.8,35.1,29.72,SSW,202,13.0,17.0,26,0.00,,,0.00,0.0,meteohub,2013-05-14 03:41:00,
2013-05-13 22:46:00,71.6,34.9,29.72,SSW,202,13.0,17.0,26,0.00,,,0.00,0.0,meteohub,2013-05-14 03:46:00,
2013-05-13 22:51:00,71.4,34.7,29.72,SSW,198,11.0,17.0,26,0.00,,,0.00,0.0,meteohub,2013-05-14 03:51:00,
2013-05-13 22:56:00,71.6,34.9,29.72,SSW,198,12.0,19.0,26,0.00,,,0.00,0.0,meteohub,2013-05-14 03:56:00,
2013-05-13 23:01:00,71.8,34.0,29.72,SSW,200,16.0,21.0,25,0.00,,,0.00,0.0,meteohub,2013-05-14 04:01:00,
2013-05-13 23:02:00,71.8,34.0,29.72,SSW,195,16.0,21.0,25,0.00,,,0.00,0.0,meteohub,2013-05-14 04:02:00,
2013-05-13 23:03:00,71.8,34.0,29.72,SSW,212,16.0,21.0,25,0.00,,,0.00,0.0,meteohub,2013-05-14 04:03:00,
2013-05-13 23:08:00,71.4,34.7,29.72,SSW,204,16.0,21.0,26,0.00,,,0.00,0.0,meteohub,2013-05-14 04:08:00,
2013-05-13 23:13:00,71.1,34.5,29.72,SSW,206,17.0,21.0,26,0.00,,,0.00,0.0,meteohub,2013-05-14 04:13:00,
2013-05-13 23:18:00,71.1,34.5,29.72,SSW,196,11.0,21.0,26,0.00,,,0.00,0.0,meteohub,2013-05-14 04:18:00,
2013-05-13 23:23:00,70.5,34.9,29.72,SSW,204,15.0,21.0,27,0.00,,,0.00,0.0,meteohub,2013-05-14 04:23:00,
2013-05-13 23:28:00,70.2,34.7,29.72,SSW,194,16.0,20.0,27,0.00,,,0.00,0.0,meteohub,2013-05-14 04:28:00,
2013-05-13 23:33:00,70.0,34.5,29.72,SSW,200,15.0,20.0,27,0.00,,,0.00,0.0,meteohub,2013-05-14 04:33:00,
2013-05-13 23:38:00,70.0,34.5,29.72,SSW,208,16.0,19.0,27,0.00,,,0.00,0.0,meteohub,2013-05-14 04:38:00,
2013-05-13 23:44:00,70.0,34.5,29.72,SSW,206,15.0,19.0,27,0.00,,,0.00,0.0,meteohub,2013-05-14 04:44:00,
2013-05-13 23:49:00,70.0,34.5,29.72,SSW,208,19.0,21.0,27,0.00,,,0.00,0.0,meteohub,2013-05-14 04:49:00,
2013-05-13 23:54:00,70.0,34.5,29.72,SSW,205,15.0,23.0,27,0.00,,,0.00,0.0,meteohub,2013-05-14 04:54:00,
2013-05-13 23:59:00,70.0,34.5,29.72,SSW,199,17.0,23.0,27,0.00,,,0.00,0.0,meteohub,2013-05-14 04:59:00,